Terminal Aerodrome Forecast
Issued by NWS Jacksonville, FL

Home | Current Version | Previous Version | Text Only | Print | Product List | Glossary On
Versions: 1 2 3 4 5 6 7 8 9 10 11 12 13 14 15 16 17 18 19 20 21 22 23 24 25 26 27 28
000
FTUS42 KJAX 300500 RRA
TAFJAX
TAF
KJAX 300548Z 3006/0106 36004KT 5SM BR VCSH SCT004 BKN011
     FM300900 34004KT 3SM BR VCSH OVC004
     FM301500 36008KT P6SM VCSH SCT007 OVC015
     FM301800 02008KT P6SM SCT015 BKN025
     FM302000 04008KT P6SM SCT025 BKN040=

USA.gov is the U.S. government's official web portal to all federal, state and local government web resources and services.